sensor_id;sensor_type;location;lat;lon;timestamp;temperature;humidity
11772;DHT22;12556;55.748;13.194;2022-07-29T00:01:44;12.30;99.90
11772;DHT22;12556;55.748;13.194;2022-07-29T00:04:11;12.30;99.90
11772;DHT22;12556;55.748;13.194;2022-07-29T00:06:38;12.40;99.90
11772;DHT22;12556;55.748;13.194;2022-07-29T00:09:05;12.30;99.90
11772;DHT22;12556;55.748;13.194;2022-07-29T00:11:32;12.40;99.90
11772;DHT22;12556;55.748;13.194;2022-07-29T00:13:59;12.30;99.90
11772;DHT22;12556;55.748;13.194;2022-07-29T00:16:28;12.30;99.90
11772;DHT22;12556;55.748;13.194;2022-07-29T00:18:55;12.40;99.90
11772;DHT22;12556;55.748;13.194;2022-07-29T00:21:21;12.40;99.90
11772;DHT22;12556;55.748;13.194;2022-07-29T00:23:48;12.30;99.90
11772;DHT22;12556;55.748;13.194;2022-07-29T00:26:15;12.30;99.90
11772;DHT22;12556;55.748;13.194;2022-07-29T00:28:42;12.40;99.90
11772;DHT22;12556;55.748;13.194;2022-07-29T00:31:09;12.30;99.90
11772;DHT22;12556;55.748;13.194;2022-07-29T00:33:37;12.30;99.90
11772;DHT22;12556;55.748;13.194;2022-07-29T00:36:05;12.30;99.90
11772;DHT22;12556;55.748;13.194;2022-07-29T00:38:31;12.30;99.90
11772;DHT22;12556;55.748;13.194;2022-07-29T00:40:58;12.30;99.90
11772;DHT22;12556;55.748;13.194;2022-07-29T00:43:25;12.30;99.90
11772;DHT22;12556;55.748;13.194;2022-07-29T00:45:52;12.30;99.90
11772;DHT22;12556;55.748;13.194;2022-07-29T00:48:19;12.30;99.90
11772;DHT22;12556;55.748;13.194;2022-07-29T00:50:49;12.30;99.90
11772;DHT22;12556;55.748;13.194;2022-07-29T00:53:15;12.40;99.90
11772;DHT22;12556;55.748;13.194;2022-07-29T00:55:42;12.30;99.90
11772;DHT22;12556;55.748;13.194;2022-07-29T00:58:12;12.30;99.90
11772;DHT22;12556;55.748;13.194;2022-07-29T01:00:39;12.30;99.90
11772;DHT22;12556;55.748;13.194;2022-07-29T01:03:06;12.30;99.90
11772;DHT22;12556;55.748;13.194;2022-07-29T01:05:35;12.30;99.90
11772;DHT22;12556;55.748;13.194;2022-07-29T01:08:03;12.30;99.90
11772;DHT22;12556;55.748;13.194;2022-07-29T01:10:31;12.30;99.90
11772;DHT22;12556;55.748;13.194;2022-07-29T01:12:59;12.30;99.90
11772;DHT22;12556;55.748;13.194;2022-07-29T01:15:28;12.30;99.90
11772;DHT22;12556;55.748;13.194;2022-07-29T01:18:03;12.30;99.90
11772;DHT22;12556;55.748;13.194;2022-07-29T01:20:45;12.30;99.90
11772;DHT22;12556;55.748;13.194;2022-07-29T01:23:38;12.30;99.90
11772;DHT22;12556;55.748;13.194;2022-07-29T01:26:41;12.30;99.90
11772;DHT22;12556;55.748;13.194;2022-07-29T01:29:18;12.30;99.90
11772;DHT22;12556;55.748;13.194;2022-07-29T01:31:56;12.30;99.90
11772;DHT22;12556;55.748;13.194;2022-07-29T01:34:29;12.30;99.90
11772;DHT22;12556;55.748;13.194;2022-07-29T01:37:03;12.30;99.90
11772;DHT22;12556;55.748;13.194;2022-07-29T01:39:33;12.30;99.90
11772;DHT22;12556;55.748;13.194;2022-07-29T01:42:07;12.20;99.90
11772;DHT22;12556;55.748;13.194;2022-07-29T01:44:41;12.20;99.90
11772;DHT22;12556;55.748;13.194;2022-07-29T01:47:15;12.20;99.90
11772;DHT22;12556;55.748;13.194;2022-07-29T01:49:47;12.10;99.90
11772;DHT22;12556;55.748;13.194;2022-07-29T01:52:20;12.10;99.90
11772;DHT22;12556;55.748;13.194;2022-07-29T01:54:52;12.10;99.90
11772;DHT22;12556;55.748;13.194;2022-07-29T01:57:21;12.10;99.90
11772;DHT22;12556;55.748;13.194;2022-07-29T01:59:53;12.10;99.90
11772;DHT22;12556;55.748;13.194;2022-07-29T02:02:22;12.00;99.90
11772;DHT22;12556;55.748;13.194;2022-07-29T02:04:50;12.00;99.90
11772;DHT22;12556;55.748;13.194;2022-07-29T02:07:20;12.00;99.90
11772;DHT22;12556;55.748;13.194;2022-07-29T02:09:49;12.00;99.90
11772;DHT22;12556;55.748;13.194;2022-07-29T02:12:18;12.00;99.90
11772;DHT22;12556;55.748;13.194;2022-07-29T02:14:49;11.90;99.90
11772;DHT22;12556;55.748;13.194;2022-07-29T02:17:22;11.90;99.90
11772;DHT22;12556;55.748;13.194;2022-07-29T02:19:50;11.90;99.90
11772;DHT22;12556;55.748;13.194;2022-07-29T02:22:18;11.90;99.90
11772;DHT22;12556;55.748;13.194;2022-07-29T02:24:47;11.90;99.90
11772;DHT22;12556;55.748;13.194;2022-07-29T02:27:15;11.90;99.90
11772;DHT22;12556;55.748;13.194;2022-07-29T02:29:45;11.80;99.90
11772;DHT22;12556;55.748;13.194;2022-07-29T02:32:13;11.80;99.90
11772;DHT22;12556;55.748;13.194;2022-07-29T02:34:43;11.80;99.90
11772;DHT22;12556;55.748;13.194;2022-07-29T02:37:11;11.80;99.90
11772;DHT22;12556;55.748;13.194;2022-07-29T02:39:40;11.80;99.90
11772;DHT22;12556;55.748;13.194;2022-07-29T02:42:10;11.80;99.90
11772;DHT22;12556;55.748;13.194;2022-07-29T02:44:37;11.80;99.90
11772;DHT22;12556;55.748;13.194;2022-07-29T02:47:10;11.80;99.90
11772;DHT22;12556;55.748;13.194;2022-07-29T02:49:42;11.80;99.90
11772;DHT22;12556;55.748;13.194;2022-07-29T02:52:20;11.80;99.90
11772;DHT22;12556;55.748;13.194;2022-07-29T02:54:53;11.80;99.90
11772;DHT22;12556;55.748;13.194;2022-07-29T02:57:25;11.80;99.90
11772;DHT22;12556;55.748;13.194;2022-07-29T02:59:57;11.80;99.90
11772;DHT22;12556;55.748;13.194;2022-07-29T03:02:25;11.80;99.90
11772;DHT22;12556;55.748;13.194;2022-07-29T03:04:55;11.80;99.90
11772;DHT22;12556;55.748;13.194;2022-07-29T03:07:23;11.80;99.90
11772;DHT22;12556;55.748;13.194;2022-07-29T03:09:51;11.70;99.90
11772;DHT22;12556;55.748;13.194;2022-07-29T03:12:18;11.70;99.90
11772;DHT22;12556;55.748;13.194;2022-07-29T03:14:46;11.70;99.90
11772;DHT22;12556;55.748;13.194;2022-07-29T03:17:14;11.70;99.90
11772;DHT22;12556;55.748;13.194;2022-07-29T03:19:42;11.70;99.90
11772;DHT22;12556;55.748;13.194;2022-07-29T03:22:10;11.70;99.90
11772;DHT22;12556;55.748;13.194;2022-07-29T03:24:37;11.80;99.90
11772;DHT22;12556;55.748;13.194;2022-07-29T03:27:05;11.80;99.90
11772;DHT22;12556;55.748;13.194;2022-07-29T03:29:32;11.70;99.90
11772;DHT22;12556;55.748;13.194;2022-07-29T03:32:00;11.80;99.90
11772;DHT22;12556;55.748;13.194;2022-07-29T03:34:27;11.70;99.90
11772;DHT22;12556;55.748;13.194;2022-07-29T03:36:54;11.70;99.90
11772;DHT22;12556;55.748;13.194;2022-07-29T03:39:25;11.70;99.90
11772;DHT22;12556;55.748;13.194;2022-07-29T03:41:56;11.70;99.90
11772;DHT22;12556;55.748;13.194;2022-07-29T03:44:25;11.70;99.90
11772;DHT22;12556;55.748;13.194;2022-07-29T03:46:54;11.70;99.90
11772;DHT22;12556;55.748;13.194;2022-07-29T03:49:23;12.40;99.90
11772;DHT22;12556;55.748;13.194;2022-07-29T03:51:51;11.70;99.90
11772;DHT22;12556;55.748;13.194;2022-07-29T03:54:18;11.80;99.90
11772;DHT22;12556;55.748;13.194;2022-07-29T03:56:47;11.80;99.90
11772;DHT22;12556;55.748;13.194;2022-07-29T03:59:16;11.80;99.90
11772;DHT22;12556;55.748;13.194;2022-07-29T04:01:45;11.80;99.90
11772;DHT22;12556;55.748;13.194;2022-07-29T04:04:12;11.80;99.90
11772;DHT22;12556;55.748;13.194;2022-07-29T04:06:40;11.80;99.90
11772;DHT22;12556;55.748;13.194;2022-07-29T04:09:07;11.80;99.90
11772;DHT22;12556;55.748;13.194;2022-07-29T04:11:35;11.80;99.90
11772;DHT22;12556;55.748;13.194;2022-07-29T04:14:03;11.80;99.90
11772;DHT22;12556;55.748;13.194;2022-07-29T04:16:30;11.80;99.90
11772;DHT22;12556;55.748;13.194;2022-07-29T04:18:57;11.90;99.90
11772;DHT22;12556;55.748;13.194;2022-07-29T04:21:24;11.90;99.90
11772;DHT22;12556;55.748;13.194;2022-07-29T04:23:51;11.90;99.90
11772;DHT22;12556;55.748;13.194;2022-07-29T04:26:19;12.00;99.90
11772;DHT22;12556;55.748;13.194;2022-07-29T04:28:46;12.10;99.90
11772;DHT22;12556;55.748;13.194;2022-07-29T04:31:14;12.10;99.90
11772;DHT22;12556;55.748;13.194;2022-07-29T04:33:41;12.20;99.90
11772;DHT22;12556;55.748;13.194;2022-07-29T04:36:08;12.30;99.90
11772;DHT22;12556;55.748;13.194;2022-07-29T04:41:11;12.40;99.90
11772;DHT22;12556;55.748;13.194;2022-07-29T04:43:39;12.50;99.90
11772;DHT22;12556;55.748;13.194;2022-07-29T04:46:06;12.60;99.90
11772;DHT22;12556;55.748;13.194;2022-07-29T04:48:35;12.60;99.90
11772;DHT22;12556;55.748;13.194;2022-07-29T04:51:02;12.70;99.90
11772;DHT22;12556;55.748;13.194;2022-07-29T04:53:29;12.90;99.90
11772;DHT22;12556;55.748;13.194;2022-07-29T04:55:56;13.50;99.90
11772;DHT22;12556;55.748;13.194;2022-07-29T04:58:23;13.60;99.90
11772;DHT22;12556;55.748;13.194;2022-07-29T05:00:50;13.20;99.90
11772;DHT22;12556;55.748;13.194;2022-07-29T05:03:18;13.40;99.90
11772;DHT22;12556;55.748;13.194;2022-07-29T05:05:46;13.50;99.90
11772;DHT22;12556;55.748;13.194;2022-07-29T05:08:13;13.70;99.90
11772;DHT22;12556;55.748;13.194;2022-07-29T05:10:40;13.80;99.90
11772;DHT22;12556;55.748;13.194;2022-07-29T05:13:07;13.90;99.90
11772;DHT22;12556;55.748;13.194;2022-07-29T05:15:34;14.00;99.90
11772;DHT22;12556;55.748;13.194;2022-07-29T05:18:02;14.20;99.90
11772;DHT22;12556;55.748;13.194;2022-07-29T05:20:30;14.30;99.90
11772;DHT22;12556;55.748;13.194;2022-07-29T05:22:59;14.30;99.90
11772;DHT22;12556;55.748;13.194;2022-07-29T05:25:27;14.60;99.90
11772;DHT22;12556;55.748;13.194;2022-07-29T05:27:55;14.80;99.90
11772;DHT22;12556;55.748;13.194;2022-07-29T05:30:22;14.90;99.90
11772;DHT22;12556;55.748;13.194;2022-07-29T05:32:49;15.00;99.90
11772;DHT22;12556;55.748;13.194;2022-07-29T05:35:16;15.10;99.90
11772;DHT22;12556;55.748;13.194;2022-07-29T05:37:43;15.20;99.90
11772;DHT22;12556;55.748;13.194;2022-07-29T05:40:11;15.40;99.90
11772;DHT22;12556;55.748;13.194;2022-07-29T05:42:38;15.50;99.90
11772;DHT22;12556;55.748;13.194;2022-07-29T05:45:06;15.60;99.90
11772;DHT22;12556;55.748;13.194;2022-07-29T05:47:33;15.70;99.90
11772;DHT22;12556;55.748;13.194;2022-07-29T05:50:00;15.80;99.90
11772;DHT22;12556;55.748;13.194;2022-07-29T05:52:27;15.90;99.90
11772;DHT22;12556;55.748;13.194;2022-07-29T05:54:54;16.10;99.90
11772;DHT22;12556;55.748;13.194;2022-07-29T05:57:24;16.30;99.90
11772;DHT22;12556;55.748;13.194;2022-07-29T05:59:51;16.40;99.90
11772;DHT22;12556;55.748;13.194;2022-07-29T06:02:18;16.90;99.90
11772;DHT22;12556;55.748;13.194;2022-07-29T06:04:45;16.70;99.90
11772;DHT22;12556;55.748;13.194;2022-07-29T06:07:13;16.80;99.90
11772;DHT22;12556;55.748;13.194;2022-07-29T06:09:40;17.00;99.90
11772;DHT22;12556;55.748;13.194;2022-07-29T06:12:07;17.20;99.90
11772;DHT22;12556;55.748;13.194;2022-07-29T06:14:35;17.40;99.90
11772;DHT22;12556;55.748;13.194;2022-07-29T06:17:03;17.60;99.90
11772;DHT22;12556;55.748;13.194;2022-07-29T06:19:31;17.70;99.90
11772;DHT22;12556;55.748;13.194;2022-07-29T06:21:58;17.90;99.90
11772;DHT22;12556;55.748;13.194;2022-07-29T06:24:25;18.10;99.90
11772;DHT22;12556;55.748;13.194;2022-07-29T06:26:52;18.40;99.90
11772;DHT22;12556;55.748;13.194;2022-07-29T06:29:19;18.60;99.90
11772;DHT22;12556;55.748;13.194;2022-07-29T06:31:47;18.70;99.90
11772;DHT22;12556;55.748;13.194;2022-07-29T06:34:14;18.90;99.90
11772;DHT22;12556;55.748;13.194;2022-07-29T06:36:41;19.10;99.90
11772;DHT22;12556;55.748;13.194;2022-07-29T06:39:09;19.30;99.90
11772;DHT22;12556;55.748;13.194;2022-07-29T06:41:36;19.50;99.90
11772;DHT22;12556;55.748;13.194;2022-07-29T06:44:03;19.50;99.90
11772;DHT22;12556;55.748;13.194;2022-07-29T06:46:30;19.70;99.90
11772;DHT22;12556;55.748;13.194;2022-07-29T06:48:59;19.70;99.90
11772;DHT22;12556;55.748;13.194;2022-07-29T06:51:27;19.80;99.90
11772;DHT22;12556;55.748;13.194;2022-07-29T06:53:54;19.90;99.90
11772;DHT22;12556;55.748;13.194;2022-07-29T06:56:23;20.20;99.90
11772;DHT22;12556;55.748;13.194;2022-07-29T06:58:50;20.30;99.90
11772;DHT22;12556;55.748;13.194;2022-07-29T07:01:16;20.50;99.90
11772;DHT22;12556;55.748;13.194;2022-07-29T07:03:45;20.60;99.90
11772;DHT22;12556;55.748;13.194;2022-07-29T07:06:13;20.70;99.90
11772;DHT22;12556;55.748;13.194;2022-07-29T07:08:40;20.80;99.90
11772;DHT22;12556;55.748;13.194;2022-07-29T07:11:07;20.90;99.90
11772;DHT22;12556;55.748;13.194;2022-07-29T07:13:34;20.90;99.90
11772;DHT22;12556;55.748;13.194;2022-07-29T07:16:02;21.00;99.90
11772;DHT22;12556;55.748;13.194;2022-07-29T07:18:29;21.20;99.90
11772;DHT22;12556;55.748;13.194;2022-07-29T07:20:57;21.40;99.90
11772;DHT22;12556;55.748;13.194;2022-07-29T07:23:25;21.50;99.90
11772;DHT22;12556;55.748;13.194;2022-07-29T07:25:52;21.60;99.90
11772;DHT22;12556;55.748;13.194;2022-07-29T07:28:19;21.80;99.90
11772;DHT22;12556;55.748;13.194;2022-07-29T07:30:46;21.90;99.90
11772;DHT22;12556;55.748;13.194;2022-07-29T07:33:14;22.00;99.90
11772;DHT22;12556;55.748;13.194;2022-07-29T07:35:41;22.10;99.90
11772;DHT22;12556;55.748;13.194;2022-07-29T07:38:08;22.20;99.30
11772;DHT22;12556;55.748;13.194;2022-07-29T07:40:36;22.20;98.80
11772;DHT22;12556;55.748;13.194;2022-07-29T07:43:03;22.30;98.70
11772;DHT22;12556;55.748;13.194;2022-07-29T07:45:30;22.40;98.20
11772;DHT22;12556;55.748;13.194;2022-07-29T07:47:59;22.60;97.60
11772;DHT22;12556;55.748;13.194;2022-07-29T07:50:26;22.60;97.00
11772;DHT22;12556;55.748;13.194;2022-07-29T07:52:55;22.70;96.80
11772;DHT22;12556;55.748;13.194;2022-07-29T07:55:23;22.80;96.50
11772;DHT22;12556;55.748;13.194;2022-07-29T07:57:52;23.00;95.70
11772;DHT22;12556;55.748;13.194;2022-07-29T08:00:19;23.10;95.50
11772;DHT22;12556;55.748;13.194;2022-07-29T08:02:46;23.10;95.00
11772;DHT22;12556;55.748;13.194;2022-07-29T08:05:13;23.10;94.90
11772;DHT22;12556;55.748;13.194;2022-07-29T08:07:44;23.10;94.90
11772;DHT22;12556;55.748;13.194;2022-07-29T08:10:11;23.20;94.30
11772;DHT22;12556;55.748;13.194;2022-07-29T08:12:38;23.30;94.00
11772;DHT22;12556;55.748;13.194;2022-07-29T08:15:08;23.50;93.40
11772;DHT22;12556;55.748;13.194;2022-07-29T08:17:35;23.70;92.90
11772;DHT22;12556;55.748;13.194;2022-07-29T08:20:03;23.80;92.60
11772;DHT22;12556;55.748;13.194;2022-07-29T08:22:30;23.90;92.50
11772;DHT22;12556;55.748;13.194;2022-07-29T08:24:57;23.90;92.30
11772;DHT22;12556;55.748;13.194;2022-07-29T08:27:24;24.10;91.90
11772;DHT22;12556;55.748;13.194;2022-07-29T08:29:53;24.10;91.50
11772;DHT22;12556;55.748;13.194;2022-07-29T08:32:22;24.20;91.70
11772;DHT22;12556;55.748;13.194;2022-07-29T08:34:49;24.30;91.30
11772;DHT22;12556;55.748;13.194;2022-07-29T08:37:16;24.50;90.60
11772;DHT22;12556;55.748;13.194;2022-07-29T08:39:43;24.40;89.80
11772;DHT22;12556;55.748;13.194;2022-07-29T08:42:10;24.50;89.40
11772;DHT22;12556;55.748;13.194;2022-07-29T08:44:37;24.50;89.20
11772;DHT22;12556;55.748;13.194;2022-07-29T08:47:05;24.50;88.80
11772;DHT22;12556;55.748;13.194;2022-07-29T08:49:34;24.50;88.30
11772;DHT22;12556;55.748;13.194;2022-07-29T08:52:02;24.60;88.70
11772;DHT22;12556;55.748;13.194;2022-07-29T08:54:30;24.70;88.40
11772;DHT22;12556;55.748;13.194;2022-07-29T08:56:57;24.80;86.90
11772;DHT22;12556;55.748;13.194;2022-07-29T08:59:26;24.70;86.30
11772;DHT22;12556;55.748;13.194;2022-07-29T09:01:54;24.80;86.30
11772;DHT22;12556;55.748;13.194;2022-07-29T09:04:27;25.00;85.80
11772;DHT22;12556;55.748;13.194;2022-07-29T09:06:59;25.20;85.50
11772;DHT22;12556;55.748;13.194;2022-07-29T09:09:27;25.40;84.60
11772;DHT22;12556;55.748;13.194;2022-07-29T09:11:54;25.50;84.40
11772;DHT22;12556;55.748;13.194;2022-07-29T09:14:21;25.60;83.10
11772;DHT22;12556;55.748;13.194;2022-07-29T09:16:52;25.80;81.90
11772;DHT22;12556;55.748;13.194;2022-07-29T09:19:21;25.80;81.50
11772;DHT22;12556;55.748;13.194;2022-07-29T09:21:48;25.90;81.60
11772;DHT22;12556;55.748;13.194;2022-07-29T09:24:40;26.00;81.40
11772;DHT22;12556;55.748;13.194;2022-07-29T09:27:10;25.90;81.00
11772;DHT22;12556;55.748;13.194;2022-07-29T09:29:37;25.80;80.80
11772;DHT22;12556;55.748;13.194;2022-07-29T09:32:06;26.00;80.60
11772;DHT22;12556;55.748;13.194;2022-07-29T09:34:34;26.10;78.80
11772;DHT22;12556;55.748;13.194;2022-07-29T09:37:02;26.20;79.40
11772;DHT22;12556;55.748;13.194;2022-07-29T09:39:32;26.40;79.40
11772;DHT22;12556;55.748;13.194;2022-07-29T09:42:03;26.50;78.30
11772;DHT22;12556;55.748;13.194;2022-07-29T09:44:44;26.80;77.30
11772;DHT22;12556;55.748;13.194;2022-07-29T09:47:12;26.90;76.80
11772;DHT22;12556;55.748;13.194;2022-07-29T09:49:54;27.00;76.30
11772;DHT22;12556;55.748;13.194;2022-07-29T09:52:23;27.10;76.10
11772;DHT22;12556;55.748;13.194;2022-07-29T09:54:50;27.20;76.50
11772;DHT22;12556;55.748;13.194;2022-07-29T09:57:25;27.50;75.60
11772;DHT22;12556;55.748;13.194;2022-07-29T09:59:57;27.80;75.90
11772;DHT22;12556;55.748;13.194;2022-07-29T10:02:29;27.90;73.40
11772;DHT22;12556;55.748;13.194;2022-07-29T10:04:56;27.90;71.90
11772;DHT22;12556;55.748;13.194;2022-07-29T10:07:24;27.80;70.70
11772;DHT22;12556;55.748;13.194;2022-07-29T10:09:53;27.80;71.10
11772;DHT22;12556;55.748;13.194;2022-07-29T10:12:23;27.90;70.80
11772;DHT22;12556;55.748;13.194;2022-07-29T10:14:50;27.90;70.70
11772;DHT22;12556;55.748;13.194;2022-07-29T10:17:17;27.90;71.40
11772;DHT22;12556;55.748;13.194;2022-07-29T10:19:45;28.00;71.20
11772;DHT22;12556;55.748;13.194;2022-07-29T10:22:12;27.90;71.40
11772;DHT22;12556;55.748;13.194;2022-07-29T10:24:39;27.90;71.30
11772;DHT22;12556;55.748;13.194;2022-07-29T10:27:07;27.90;70.70
11772;DHT22;12556;55.748;13.194;2022-07-29T10:29:36;27.90;70.20
11772;DHT22;12556;55.748;13.194;2022-07-29T10:32:16;28.00;69.40
11772;DHT22;12556;55.748;13.194;2022-07-29T10:37:52;28.20;69.90
11772;DHT22;12556;55.748;13.194;2022-07-29T10:40:27;28.40;69.50
11772;DHT22;12556;55.748;13.194;2022-07-29T10:43:18;28.50;68.20
11772;DHT22;12556;55.748;13.194;2022-07-29T10:45:50;28.60;68.20
11772;DHT22;12556;55.748;13.194;2022-07-29T10:48:21;28.80;68.00
11772;DHT22;12556;55.748;13.194;2022-07-29T10:50:56;28.80;66.90
11772;DHT22;12556;55.748;13.194;2022-07-29T10:53:25;29.00;67.80
11772;DHT22;12556;55.748;13.194;2022-07-29T10:56:23;28.70;66.80
11772;DHT22;12556;55.748;13.194;2022-07-29T10:59:24;29.10;66.30
11772;DHT22;12556;55.748;13.194;2022-07-29T11:01:53;29.00;66.00
11772;DHT22;12556;55.748;13.194;2022-07-29T11:07:24;29.00;65.90
11772;DHT22;12556;55.748;13.194;2022-07-29T11:10:20;29.20;66.70
11772;DHT22;12556;55.748;13.194;2022-07-29T11:12:47;29.50;65.80
11772;DHT22;12556;55.748;13.194;2022-07-29T11:15:15;29.30;66.30
11772;DHT22;12556;55.748;13.194;2022-07-29T11:18:08;29.30;65.30
11772;DHT22;12556;55.748;13.194;2022-07-29T11:20:39;29.40;63.70
11772;DHT22;12556;55.748;13.194;2022-07-29T11:23:34;29.50;62.60
11772;DHT22;12556;55.748;13.194;2022-07-29T11:26:17;29.30;62.90
11772;DHT22;12556;55.748;13.194;2022-07-29T11:28:57;29.50;63.00
11772;DHT22;12556;55.748;13.194;2022-07-29T11:31:34;29.50;62.90
11772;DHT22;12556;55.748;13.194;2022-07-29T11:34:28;29.60;62.60
11772;DHT22;12556;55.748;13.194;2022-07-29T11:37:18;29.70;62.80
11772;DHT22;12556;55.748;13.194;2022-07-29T11:39:47;29.70;63.00
11772;DHT22;12556;55.748;13.194;2022-07-29T11:42:44;29.80;62.70
11772;DHT22;12556;55.748;13.194;2022-07-29T11:45:20;29.80;61.90
11772;DHT22;12556;55.748;13.194;2022-07-29T11:47:55;29.90;60.80
11772;DHT22;12556;55.748;13.194;2022-07-29T11:50:35;30.00;60.40
11772;DHT22;12556;55.748;13.194;2022-07-29T11:53:10;30.00;60.70
11772;DHT22;12556;55.748;13.194;2022-07-29T11:55:38;30.00;59.00
11772;DHT22;12556;55.748;13.194;2022-07-29T11:58:06;30.10;58.80
11772;DHT22;12556;55.748;13.194;2022-07-29T12:00:34;30.10;58.80
11772;DHT22;12556;55.748;13.194;2022-07-29T12:03:06;30.00;59.10
11772;DHT22;12556;55.748;13.194;2022-07-29T12:05:37;30.20;59.10
11772;DHT22;12556;55.748;13.194;2022-07-29T12:08:09;30.30;58.10
11772;DHT22;12556;55.748;13.194;2022-07-29T12:10:36;30.40;57.60
11772;DHT22;12556;55.748;13.194;2022-07-29T12:13:03;30.40;58.30
11772;DHT22;12556;55.748;13.194;2022-07-29T12:15:31;30.50;57.90
11772;DHT22;12556;55.748;13.194;2022-07-29T12:17:58;30.70;57.90
11772;DHT22;12556;55.748;13.194;2022-07-29T12:20:26;30.90;58.30
11772;DHT22;12556;55.748;13.194;2022-07-29T12:22:55;30.90;57.60
11772;DHT22;12556;55.748;13.194;2022-07-29T12:25:23;30.80;57.80
11772;DHT22;12556;55.748;13.194;2022-07-29T12:28:01;30.90;57.70
11772;DHT22;12556;55.748;13.194;2022-07-29T12:30:36;30.90;57.80
11772;DHT22;12556;55.748;13.194;2022-07-29T12:33:12;31.00;58.00
11772;DHT22;12556;55.748;13.194;2022-07-29T12:35:40;30.90;57.70
11772;DHT22;12556;55.748;13.194;2022-07-29T12:38:11;30.50;58.80
11772;DHT22;12556;55.748;13.194;2022-07-29T12:40:38;30.40;58.30
11772;DHT22;12556;55.748;13.194;2022-07-29T12:43:07;30.40;58.00
11772;DHT22;12556;55.748;13.194;2022-07-29T12:45:35;30.60;57.10
11772;DHT22;12556;55.748;13.194;2022-07-29T12:48:03;30.70;56.20
11772;DHT22;12556;55.748;13.194;2022-07-29T12:50:30;30.90;56.40
11772;DHT22;12556;55.748;13.194;2022-07-29T12:53:09;30.80;56.50
11772;DHT22;12556;55.748;13.194;2022-07-29T12:55:44;31.10;56.80
11772;DHT22;12556;55.748;13.194;2022-07-29T12:58:25;31.30;55.90
11772;DHT22;12556;55.748;13.194;2022-07-29T13:01:00;31.20;56.20
11772;DHT22;12556;55.748;13.194;2022-07-29T13:03:27;31.20;57.10
11772;DHT22;12556;55.748;13.194;2022-07-29T13:05:54;31.10;57.00
11772;DHT22;12556;55.748;13.194;2022-07-29T13:08:23;30.90;57.00
11772;DHT22;12556;55.748;13.194;2022-07-29T13:10:50;30.80;57.30
11772;DHT22;12556;55.748;13.194;2022-07-29T13:13:17;30.90;57.50
11772;DHT22;12556;55.748;13.194;2022-07-29T13:15:45;30.80;57.80
11772;DHT22;12556;55.748;13.194;2022-07-29T13:18:29;31.00;57.30
11772;DHT22;12556;55.748;13.194;2022-07-29T13:20:57;31.00;57.00
11772;DHT22;12556;55.748;13.194;2022-07-29T13:23:37;30.70;56.90
11772;DHT22;12556;55.748;13.194;2022-07-29T13:26:05;30.20;57.00
11772;DHT22;12556;55.748;13.194;2022-07-29T13:28:33;30.00;58.00
11772;DHT22;12556;55.748;13.194;2022-07-29T13:31:01;29.50;58.60
11772;DHT22;12556;55.748;13.194;2022-07-29T13:33:28;29.30;59.40
11772;DHT22;12556;55.748;13.194;2022-07-29T13:35:55;29.20;59.30
11772;DHT22;12556;55.748;13.194;2022-07-29T13:38:22;29.20;59.30
11772;DHT22;12556;55.748;13.194;2022-07-29T13:40:50;29.10;59.60
11772;DHT22;12556;55.748;13.194;2022-07-29T13:43:17;28.90;59.60
11772;DHT22;12556;55.748;13.194;2022-07-29T13:45:44;28.80;59.80
11772;DHT22;12556;55.748;13.194;2022-07-29T13:48:11;28.80;59.50
11772;DHT22;12556;55.748;13.194;2022-07-29T13:50:38;28.90;60.00
11772;DHT22;12556;55.748;13.194;2022-07-29T13:53:05;29.10;58.00
11772;DHT22;12556;55.748;13.194;2022-07-29T13:55:32;29.20;56.90
11772;DHT22;12556;55.748;13.194;2022-07-29T13:58:01;29.10;55.90
11772;DHT22;12556;55.748;13.194;2022-07-29T14:00:28;29.40;55.30
11772;DHT22;12556;55.748;13.194;2022-07-29T14:02:55;29.40;55.50
11772;DHT22;12556;55.748;13.194;2022-07-29T14:05:22;29.30;55.50
11772;DHT22;12556;55.748;13.194;2022-07-29T14:07:49;29.20;56.40
11772;DHT22;12556;55.748;13.194;2022-07-29T14:10:16;29.10;57.00
11772;DHT22;12556;55.748;13.194;2022-07-29T14:12:43;29.20;57.40
11772;DHT22;12556;55.748;13.194;2022-07-29T14:15:11;29.10;58.00
11772;DHT22;12556;55.748;13.194;2022-07-29T14:17:38;29.30;57.80
11772;DHT22;12556;55.748;13.194;2022-07-29T14:20:06;29.40;57.90
11772;DHT22;12556;55.748;13.194;2022-07-29T14:22:33;29.50;57.90
11772;DHT22;12556;55.748;13.194;2022-07-29T14:25:00;29.70;58.20
11772;DHT22;12556;55.748;13.194;2022-07-29T14:27:27;29.90;58.10
11772;DHT22;12556;55.748;13.194;2022-07-29T14:29:54;30.00;57.70
11772;DHT22;12556;55.748;13.194;2022-07-29T14:32:22;29.80;58.00
11772;DHT22;12556;55.748;13.194;2022-07-29T14:34:49;29.70;58.00
11772;DHT22;12556;55.748;13.194;2022-07-29T14:37:16;29.60;57.20
11772;DHT22;12556;55.748;13.194;2022-07-29T14:39:43;29.60;56.80
11772;DHT22;12556;55.748;13.194;2022-07-29T14:42:10;29.60;55.90
11772;DHT22;12556;55.748;13.194;2022-07-29T14:44:38;29.70;56.30
11772;DHT22;12556;55.748;13.194;2022-07-29T14:47:06;29.70;56.90
11772;DHT22;12556;55.748;13.194;2022-07-29T14:49:35;29.60;57.30
11772;DHT22;12556;55.748;13.194;2022-07-29T14:52:03;29.40;57.90
11772;DHT22;12556;55.748;13.194;2022-07-29T14:54:30;29.40;57.90
11772;DHT22;12556;55.748;13.194;2022-07-29T14:56:56;29.30;58.10
11772;DHT22;12556;55.748;13.194;2022-07-29T14:59:23;29.10;58.10
11772;DHT22;12556;55.748;13.194;2022-07-29T15:01:51;28.90;58.10
11772;DHT22;12556;55.748;13.194;2022-07-29T15:04:18;28.60;59.00
11772;DHT22;12556;55.748;13.194;2022-07-29T15:06:47;28.60;59.00
11772;DHT22;12556;55.748;13.194;2022-07-29T15:09:14;28.70;58.90
11772;DHT22;12556;55.748;13.194;2022-07-29T15:11:41;28.70;58.50
11772;DHT22;12556;55.748;13.194;2022-07-29T15:14:08;28.50;58.50
11772;DHT22;12556;55.748;13.194;2022-07-29T15:16:36;28.30;58.90
11772;DHT22;12556;55.748;13.194;2022-07-29T15:19:03;28.10;59.40
11772;DHT22;12556;55.748;13.194;2022-07-29T15:21:30;28.00;59.50
11772;DHT22;12556;55.748;13.194;2022-07-29T15:23:58;27.80;59.20
11772;DHT22;12556;55.748;13.194;2022-07-29T15:26:25;27.80;59.80
11772;DHT22;12556;55.748;13.194;2022-07-29T15:28:52;27.60;59.70
11772;DHT22;12556;55.748;13.194;2022-07-29T15:31:21;27.60;60.00
11772;DHT22;12556;55.748;13.194;2022-07-29T15:33:47;27.60;60.10
11772;DHT22;12556;55.748;13.194;2022-07-29T15:36:14;27.60;60.20
11772;DHT22;12556;55.748;13.194;2022-07-29T15:38:41;27.50;60.80